Time;durP1;ratioP1;P1;durP2;ratioP2;P2;SDS_P1;SDS_P2;PMS_P1;PMS_P2;Temp;Humidity;BMP_temperature;BMP_pressure;BME280_temperature;BME280_humidity;BME280_pressure;Samples;Min_cycle;Max_cycle;Signal;HPM_P1;HPM_P2
2022/05/01 00:01:42;;;;;;;3.83;2.28;;;14.40;80.80;;;;;;5035848;28;20466;-76
2022/05/01 00:04:08;;;;;;;4.35;2.30;;;14.40;80.90;;;;;;5034332;28;20031;-75
2022/05/01 00:06:33;;;;;;;4.72;2.47;;;14.40;80.90;;;;;;5035354;28;20092;-75
2022/05/01 00:09:00;;;;;;;5.00;2.50;;;14.40;80.90;;;;;;5034484;28;20053;-76
2022/05/01 00:11:27;;;;;;;4.60;2.50;;;14.40;81.00;;;;;;5034339;28;20049;-75
2022/05/01 00:13:53;;;;;;;4.45;2.47;;;14.40;81.20;;;;;;5034248;28;20021;-76
2022/05/01 00:16:18;;;;;;;4.90;2.67;;;14.40;81.20;;;;;;5029748;28;20115;-75
2022/05/01 00:18:44;;;;;;;5.07;2.70;;;14.40;81.20;;;;;;5033995;28;20014;-75
2022/05/01 00:21:10;;;;;;;4.90;2.85;;;14.40;81.30;;;;;;5017514;28;20041;-74
2022/05/01 00:23:37;;;;;;;5.05;2.90;;;14.40;81.30;;;;;;5017460;28;20471;-76
2022/05/01 00:26:05;;;;;;;4.75;2.65;;;14.40;81.30;;;;;;5020112;28;20013;-76
2022/05/01 00:28:32;;;;;;;4.70;2.85;;;14.40;81.30;;;;;;5033851;28;20045;-76
2022/05/01 00:30:58;;;;;;;5.70;2.72;;;14.40;81.20;;;;;;5033847;28;20021;-76
2022/05/01 00:36:25;;;;;;;4.30;2.50;;;14.40;81.20;;;;;;5035079;28;20037;-75
2022/05/01 00:39:02;;;;;;;4.85;2.40;;;14.40;81.00;;;;;;5034724;28;20493;-76
2022/05/01 00:41:30;;;;;;;5.00;2.53;;;14.40;81.10;;;;;;5033651;28;20026;-76
2022/05/01 00:44:08;;;;;;;4.43;2.35;;;14.40;81.20;;;;;;5034694;28;20120;-76
2022/05/01 00:46:45;;;;;;;4.72;2.50;;;14.30;81.30;;;;;;5033245;28;20029;-76
2022/05/01 00:49:14;;;;;;;5.20;2.60;;;14.40;81.20;;;;;;5034704;28;20026;-76
2022/05/01 00:51:53;;;;;;;4.65;2.78;;;14.40;81.10;;;;;;5034142;28;20109;-76
2022/05/01 00:54:23;;;;;;;4.10;2.40;;;14.40;81.00;;;;;;5033390;28;20033;-75
2022/05/01 00:56:50;;;;;;;4.85;2.60;;;14.40;80.90;;;;;;5034103;28;20026;-76
2022/05/01 00:59:17;;;;;;;4.55;2.60;;;14.50;80.80;;;;;;5033449;28;20083;-77
2022/05/01 01:01:44;;;;;;;3.97;2.10;;;14.50;80.60;;;;;;5033314;28;20029;-76
2022/05/01 01:04:10;;;;;;;4.88;2.40;;;14.50;80.40;;;;;;5033270;28;20036;-75
2022/05/01 01:06:36;;;;;;;4.63;2.40;;;14.50;80.60;;;;;;5032926;28;20047;-74
2022/05/01 01:09:03;;;;;;;4.03;2.30;;;14.50;80.50;;;;;;5033425;28;20052;-76
2022/05/01 01:11:29;;;;;;;4.63;2.40;;;14.40;80.50;;;;;;5033132;28;20032;-76
2022/05/01 01:13:55;;;;;;;4.75;2.50;;;14.40;80.60;;;;;;5034280;28;20026;-75
2022/05/01 01:16:21;;;;;;;5.22;2.67;;;14.40;80.70;;;;;;5032639;28;20398;-76
2022/05/01 01:18:47;;;;;;;4.25;2.50;;;14.40;80.70;;;;;;5032882;28;20025;-75
2022/05/01 01:21:13;;;;;;;4.80;2.70;;;14.40;80.80;;;;;;5033043;28;20036;-76
2022/05/01 01:23:39;;;;;;;4.25;2.22;;;14.40;80.90;;;;;;5034031;28;20532;-76
2022/05/01 01:26:07;;;;;;;3.92;2.38;;;14.40;80.90;;;;;;5032672;28;20390;-75
2022/05/01 01:28:37;;;;;;;4.35;2.30;;;14.40;80.90;;;;;;5032939;28;20018;-76
2022/05/01 01:33:53;;;;;;;5.30;2.67;;;14.40;81.20;;;;;;5034287;28;20032;-75
2022/05/01 01:36:23;;;;;;;4.22;2.47;;;14.30;81.20;;;;;;5033621;28;20029;-76
2022/05/01 01:38:49;;;;;;;4.20;2.20;;;14.40;81.10;;;;;;5032640;28;20037;-76
2022/05/01 01:41:19;;;;;;;4.47;2.55;;;14.30;81.00;;;;;;5032504;28;20034;-76
2022/05/01 01:43:45;;;;;;;4.55;2.58;;;14.30;80.90;;;;;;5033501;28;20048;-77
2022/05/01 01:46:11;;;;;;;4.55;2.50;;;14.30;81.00;;;;;;5032111;28;20048;-76
2022/05/01 01:48:36;;;;;;;5.00;2.63;;;14.30;81.00;;;;;;5016048;28;20522;-75
2022/05/01 01:51:04;;;;;;;5.00;2.55;;;14.30;81.00;;;;;;5033677;28;20029;-76
2022/05/01 01:53:31;;;;;;;4.22;2.42;;;14.30;81.00;;;;;;5033530;28;20482;-77
2022/05/01 01:55:58;;;;;;;4.47;2.60;;;14.30;81.00;;;;;;5031716;28;20035;-75
2022/05/01 01:58:24;;;;;;;5.35;2.60;;;14.30;81.10;;;;;;5033489;28;20033;-77
2022/05/01 02:00:50;;;;;;;4.18;2.38;;;14.30;81.10;;;;;;5032167;28;20025;-76
2022/05/01 02:03:16;;;;;;;4.45;2.40;;;14.30;81.20;;;;;;5031278;28;20052;-76
2022/05/01 02:05:42;;;;;;;4.47;2.60;;;14.30;81.10;;;;;;5032793;28;20038;-75
2022/05/01 02:08:08;;;;;;;4.97;2.80;;;14.40;81.10;;;;;;5033332;28;20047;-76
2022/05/01 02:10:34;;;;;;;4.75;2.50;;;14.40;80.90;;;;;;5015652;28;20029;-75
2022/05/01 02:13:00;;;;;;;4.10;2.50;;;14.40;80.80;;;;;;5031912;28;20125;-75
2022/05/01 02:15:28;;;;;;;4.95;2.58;;;14.40;80.60;;;;;;5032856;28;20109;-76
2022/05/01 02:17:53;;;;;;;4.10;2.40;;;14.50;80.40;;;;;;5033258;28;20367;-75
2022/05/01 02:20:19;;;;;;;4.10;2.40;;;14.40;80.30;;;;;;5031876;28;20033;-76
2022/05/01 02:22:44;;;;;;;4.72;2.60;;;14.40;80.50;;;;;;5032955;28;20112;-75
2022/05/01 02:25:10;;;;;;;5.07;2.80;;;14.40;80.40;;;;;;5015095;28;20024;-75
2022/05/01 02:27:37;;;;;;;4.75;2.65;;;14.40;80.40;;;;;;5033073;28;20030;-75
2022/05/01 02:30:07;;;;;;;4.18;2.58;;;14.40;80.60;;;;;;5031665;28;20502;-75
2022/05/01 02:32:36;;;;;;;4.43;2.25;;;14.40;80.60;;;;;;5031688;28;20099;-74
2022/05/01 02:35:02;;;;;;;4.93;2.50;;;14.30;81.00;;;;;;5031344;28;20048;-75
2022/05/01 02:37:27;;;;;;;4.13;2.40;;;14.40;80.90;;;;;;5031687;28;20638;-75
2022/05/01 02:39:53;;;;;;;5.15;2.80;;;14.30;81.00;;;;;;5032777;28;20029;-76
2022/05/01 02:42:19;;;;;;;5.03;2.83;;;14.30;81.00;;;;;;5031387;28;20449;-76
2022/05/01 02:44:44;;;;;;;4.47;2.63;;;14.30;81.00;;;;;;5014382;28;20025;-76
2022/05/01 02:47:11;;;;;;;4.45;2.45;;;14.30;80.80;;;;;;5014986;28;20074;-76
2022/05/01 02:49:37;;;;;;;4.25;2.50;;;14.30;80.90;;;;;;5032673;28;20101;-77
2022/05/01 02:52:03;;;;;;;4.07;2.38;;;14.30;81.10;;;;;;5032543;28;20101;-76
2022/05/01 02:54:28;;;;;;;4.20;2.38;;;14.30;81.10;;;;;;5014872;28;20049;-76
2022/05/01 02:56:54;;;;;;;4.45;2.47;;;14.30;81.10;;;;;;5032054;28;20049;-75
2022/05/01 02:59:20;;;;;;;4.80;2.78;;;14.30;81.10;;;;;;5030197;28;20390;-76
2022/05/01 03:01:45;;;;;;;5.05;2.83;;;14.30;81.00;;;;;;5014887;28;20030;-76
2022/05/01 03:04:11;;;;;;;4.07;2.38;;;14.30;81.00;;;;;;5032430;28;20037;-76
2022/05/01 03:06:37;;;;;;;4.53;2.60;;;14.30;80.90;;;;;;5014442;28;20093;-75
2022/05/01 03:09:03;;;;;;;4.30;2.38;;;14.30;81.10;;;;;;5032294;28;20084;-76
2022/05/01 03:11:29;;;;;;;5.45;2.80;;;14.30;81.00;;;;;;5014721;28;20075;-76
2022/05/01 03:13:54;;;;;;;4.57;2.83;;;14.30;81.10;;;;;;5032322;28;20124;-76
2022/05/01 03:16:20;;;;;;;4.75;2.83;;;14.30;81.10;;;;;;5014286;28;20028;-75
2022/05/01 03:24:17;;;;;;;4.63;2.40;;;14.30;81.00;;;;;;5032275;28;20032;-76
2022/05/01 03:26:42;;;;;;;5.00;2.58;;;14.30;80.90;;;;;;5030674;28;20112;-75
2022/05/01 03:29:09;;;;;;;5.18;2.88;;;14.40;80.80;;;;;;5032203;28;20045;-75
2022/05/01 03:31:37;;;;;;;3.97;2.40;;;14.40;80.70;;;;;;5030955;28;20053;-75
2022/05/01 03:34:04;;;;;;;4.47;2.50;;;14.40;80.60;;;;;;5032122;28;20021;-75
2022/05/01 03:36:29;;;;;;;5.10;2.78;;;14.40;80.40;;;;;;5030630;28;20025;-76
2022/05/01 03:38:55;;;;;;;4.60;2.72;;;14.40;80.50;;;;;;5014381;28;20550;-76
2022/05/01 03:41:21;;;;;;;5.25;2.78;;;14.40;80.50;;;;;;5014413;28;20084;-76
2022/05/01 03:43:46;;;;;;;5.10;2.80;;;14.40;80.40;;;;;;5014274;28;20406;-75
2022/05/01 03:46:12;;;;;;;4.15;2.47;;;14.30;80.50;;;;;;5030517;28;20029;-74
2022/05/01 03:48:37;;;;;;;4.35;2.67;;;14.40;80.70;;;;;;5031976;28;20030;-75
2022/05/01 03:51:03;;;;;;;4.95;2.95;;;14.30;80.60;;;;;;5014369;28;20471;-76
2022/05/01 03:53:32;;;;;;;4.60;2.63;;;14.30;80.70;;;;;;5032059;28;20032;-76
2022/05/01 03:55:57;;;;;;;6.18;2.78;;;14.30;80.90;;;;;;5014196;28;20028;-76
2022/05/01 03:58:23;;;;;;;4.82;2.67;;;14.30;81.00;;;;;;5014166;28;20030;-76
2022/05/01 04:00:50;;;;;;;5.18;2.80;;;14.30;81.10;;;;;;5031954;28;20029;-76
2022/05/01 04:03:19;;;;;;;4.53;2.53;;;14.30;81.00;;;;;;5031774;28;20390;-75
2022/05/01 04:05:45;;;;;;;5.32;3.00;;;14.30;81.00;;;;;;5031506;28;20020;-76
2022/05/01 04:08:11;;;;;;;5.35;3.00;;;14.20;81.00;;;;;;5014198;28;20025;-76
2022/05/01 04:10:39;;;;;;;4.57;2.75;;;14.30;81.00;;;;;;5031612;28;20108;-75
2022/05/01 04:13:05;;;;;;;5.70;2.88;;;14.20;81.00;;;;;;5031401;28;20037;-76
2022/05/01 04:15:31;;;;;;;4.47;2.70;;;14.30;81.00;;;;;;5030175;28;20446;-76
2022/05/01 04:17:57;;;;;;;4.85;2.80;;;14.30;81.10;;;;;;5032024;28;20036;-76
2022/05/01 04:20:23;;;;;;;4.65;2.70;;;14.30;81.10;;;;;;5031711;28;20033;-76
2022/05/01 04:22:49;;;;;;;5.50;2.83;;;14.30;81.20;;;;;;5031694;28;20029;-75
2022/05/01 04:25:16;;;;;;;4.85;2.95;;;14.20;81.10;;;;;;5031594;28;20112;-75
2022/05/01 04:27:43;;;;;;;5.28;3.13;;;14.20;81.10;;;;;;5032969;28;20047;-75
2022/05/01 04:30:11;;;;;;;4.97;3.08;;;14.30;81.20;;;;;;5035213;28;20446;-76
2022/05/01 04:32:51;;;;;;;4.90;2.85;;;14.30;81.20;;;;;;5035174;28;20617;-76
2022/05/01 04:35:37;;;;;;;5.25;3.00;;;14.30;81.20;;;;;;5034932;28;20031;-76
2022/05/01 04:38:07;;;;;;;4.90;2.80;;;14.20;81.20;;;;;;5035030;28;20017;-75
2022/05/01 04:40:36;;;;;;;5.63;2.90;;;14.20;81.10;;;;;;5017400;28;20028;-76
2022/05/01 04:43:06;;;;;;;5.32;2.75;;;14.20;81.00;;;;;;5034980;28;20072;-76
2022/05/01 04:45:33;;;;;;;4.97;3.03;;;14.30;81.00;;;;;;5017012;28;20028;-75
2022/05/01 04:47:59;;;;;;;4.70;2.70;;;14.30;80.90;;;;;;5034960;28;20075;-75
2022/05/01 04:50:26;;;;;;;4.97;2.80;;;14.30;80.80;;;;;;5033685;28;20117;-76
2022/05/01 04:52:51;;;;;;;4.68;2.78;;;14.40;80.70;;;;;;5034752;28;20030;-74
2022/05/01 04:55:17;;;;;;;4.93;3.15;;;14.40;80.60;;;;;;5034384;28;20041;-75
2022/05/01 04:57:42;;;;;;;5.00;2.90;;;14.40;80.40;;;;;;5034658;28;20085;-76
2022/05/01 05:00:10;;;;;;;4.80;2.83;;;14.40;80.50;;;;;;5030352;28;20037;-75
2022/05/01 05:02:37;;;;;;;4.22;2.78;;;14.40;80.40;;;;;;5033247;28;20025;-76
2022/05/01 05:05:03;;;;;;;5.40;2.92;;;14.40;80.50;;;;;;5016496;28;20029;-76
2022/05/01 05:07:31;;;;;;;5.03;3.00;;;14.30;80.40;;;;;;5016969;28;20456;-76
2022/05/01 05:09:57;;;;;;;4.32;2.60;;;14.30;80.50;;;;;;5016679;28;20021;-76
2022/05/01 05:12:22;;;;;;;4.85;2.88;;;14.30;80.60;;;;;;5034428;28;20032;-75
2022/05/01 05:14:51;;;;;;;4.75;2.80;;;14.30;80.60;;;;;;5033115;28;20108;-76
2022/05/01 05:17:18;;;;;;;5.47;3.08;;;14.30;80.80;;;;;;5018539;28;20021;-75
2022/05/01 05:19:45;;;;;;;5.45;3.28;;;14.30;80.80;;;;;;5034189;28;20041;-75
2022/05/01 05:22:10;;;;;;;4.90;3.00;;;14.20;80.80;;;;;;5032982;28;20025;-76
2022/05/01 05:24:35;;;;;;;5.93;3.22;;;14.30;81.00;;;;;;5034073;28;20036;-75
2022/05/01 05:27:01;;;;;;;5.47;3.10;;;14.30;81.00;;;;;;5032806;28;20088;-76
2022/05/01 05:29:27;;;;;;;4.72;3.00;;;14.20;80.80;;;;;;5033992;28;20017;-77
2022/05/01 05:31:52;;;;;;;5.13;3.10;;;14.20;80.90;;;;;;5033967;28;20059;-77
2022/05/01 05:34:18;;;;;;;5.38;3.08;;;14.20;81.00;;;;;;5032797;28;20397;-75
2022/05/01 05:36:44;;;;;;;5.10;2.80;;;14.20;81.00;;;;;;5032464;28;20112;-75
2022/05/01 05:39:09;;;;;;;5.32;3.05;;;14.20;81.00;;;;;;5033901;28;20029;-75
2022/05/01 05:41:35;;;;;;;5.30;3.20;;;14.20;80.90;;;;;;5032677;28;20044;-75
2022/05/01 05:44:01;;;;;;;4.65;2.90;;;14.20;81.00;;;;;;5032367;28;20124;-75
2022/05/01 05:46:26;;;;;;;4.60;2.80;;;14.20;81.00;;;;;;5033427;28;20025;-76
2022/05/01 05:48:52;;;;;;;5.82;3.55;;;14.20;80.90;;;;;;5032496;28;20017;-76
2022/05/01 05:51:17;;;;;;;5.90;3.22;;;14.20;80.90;;;;;;5032398;28;20026;-75
2022/05/01 05:53:43;;;;;;;5.20;3.10;;;14.20;80.90;;;;;;5033632;28;20091;-75
2022/05/01 05:56:09;;;;;;;5.22;2.95;;;14.20;80.80;;;;;;5033188;28;20030;-75
2022/05/01 05:58:34;;;;;;;5.45;3.17;;;14.20;80.80;;;;;;5033348;28;20536;-76
2022/05/01 06:01:00;;;;;;;5.53;3.35;;;14.20;81.30;;;;;;5032352;28;20026;-75
2022/05/01 06:03:25;;;;;;;5.40;3.10;;;14.20;80.80;;;;;;5033372;28;20104;-76
2022/05/01 06:05:51;;;;;;;5.55;3.55;;;14.30;80.70;;;;;;5031847;28;20021;-76
2022/05/01 06:08:16;;;;;;;5.68;3.40;;;14.30;80.60;;;;;;5032225;28;20079;-76
2022/05/01 06:10:42;;;;;;;5.45;3.30;;;14.30;80.50;;;;;;5033128;28;20654;-75
2022/05/01 06:13:08;;;;;;;5.47;3.33;;;14.30;80.40;;;;;;5032006;28;20032;-76
2022/05/01 06:15:33;;;;;;;5.55;3.30;;;14.40;80.30;;;;;;5032811;28;20491;-76
2022/05/01 06:17:59;;;;;;;5.93;3.25;;;14.40;80.20;;;;;;5031882;28;20021;-76
2022/05/01 06:20:26;;;;;;;5.25;3.20;;;14.40;80.10;;;;;;5032735;28;20276;-76
2022/05/01 06:22:52;;;;;;;5.90;3.20;;;14.40;80.00;;;;;;5031677;28;20064;-76
2022/05/01 06:25:18;;;;;;;5.72;3.33;;;14.40;80.00;;;;;;5031339;28;20037;-76
2022/05/01 06:27:43;;;;;;;5.15;3.28;;;14.40;79.90;;;;;;5031768;28;20017;-75
2022/05/01 06:30:12;;;;;;;5.15;3.10;;;14.40;79.90;;;;;;5033040;28;20143;-76
2022/05/01 06:32:39;;;;;;;5.57;3.42;;;14.40;80.00;;;;;;5032914;28;20021;-75
2022/05/01 06:35:06;;;;;;;5.35;3.25;;;14.40;80.10;;;;;;5032625;28;20030;-75
2022/05/01 06:37:34;;;;;;;5.43;3.30;;;14.40;80.10;;;;;;5032799;28;20025;-75
2022/05/01 06:39:59;;;;;;;5.60;3.28;;;14.40;80.20;;;;;;5033006;28;20792;-74
2022/05/01 06:42:25;;;;;;;5.70;3.38;;;14.40;80.20;;;;;;5032748;28;20034;-75
2022/05/01 06:44:50;;;;;;;5.60;3.30;;;14.40;80.20;;;;;;5032424;28;20033;-75
2022/05/01 06:47:16;;;;;;;6.03;3.35;;;14.40;80.10;;;;;;5032517;28;20108;-76
2022/05/01 06:49:41;;;;;;;5.68;3.50;;;14.40;80.10;;;;;;5030917;28;20030;-75
2022/05/01 06:52:07;;;;;;;5.50;3.10;;;14.40;79.90;;;;;;5031298;28;20080;-75
2022/05/01 06:54:32;;;;;;;5.70;3.30;;;14.50;79.70;;;;;;5032255;28;20029;-74
2022/05/01 06:56:57;;;;;;;6.18;3.45;;;14.50;79.50;;;;;;5032326;28;20083;-75
2022/05/01 06:59:23;;;;;;;5.40;3.33;;;14.50;79.60;;;;;;5031333;28;20048;-74
2022/05/01 07:01:48;;;;;;;5.40;3.40;;;14.50;79.40;;;;;;5031293;28;20124;-75
2022/05/01 07:04:14;;;;;;;6.40;3.45;;;14.50;79.30;;;;;;5031096;28;20030;-75
2022/05/01 07:06:40;;;;;;;5.80;3.42;;;14.50;79.40;;;;;;5032095;28;20072;-75
2022/05/01 07:09:06;;;;;;;4.68;2.92;;;14.60;79.30;;;;;;5032325;28;20053;-75
2022/05/01 07:11:32;;;;;;;5.38;3.35;;;14.60;79.40;;;;;;5032398;28;20061;-74
2022/05/01 07:13:58;;;;;;;5.90;3.63;;;14.60;79.30;;;;;;5030975;28;20037;-75
2022/05/01 07:16:23;;;;;;;5.72;3.40;;;14.60;79.20;;;;;;5032161;28;20037;-76
2022/05/01 07:18:49;;;;;;;5.57;3.20;;;14.60;79.10;;;;;;5028679;28;20116;-77
2022/05/01 07:21:14;;;;;;;4.70;2.83;;;14.70;79.10;;;;;;5027163;28;20029;-77
2022/05/01 07:23:40;;;;;;;5.68;3.42;;;14.70;79.10;;;;;;5029127;28;20449;-75
2022/05/01 07:26:05;;;;;;;6.20;3.60;;;14.70;79.00;;;;;;5029184;28;20471;-77
2022/05/01 07:28:32;;;;;;;5.22;3.25;;;14.70;79.00;;;;;;5014603;28;20042;-77
2022/05/01 07:30:59;;;;;;;5.55;3.65;;;14.80;79.00;;;;;;5007970;28;20053;-77
2022/05/01 07:33:25;;;;;;;5.40;3.30;;;14.80;78.80;;;;;;5008122;28;20057;-78
2022/05/01 07:35:51;;;;;;;5.57;3.30;;;14.80;78.60;;;;;;5007645;28;20045;-77
2022/05/01 07:38:17;;;;;;;5.85;3.50;;;14.80;78.50;;;;;;5007724;28;20571;-76
2022/05/01 07:40:43;;;;;;;5.40;3.20;;;14.90;78.40;;;;;;5009068;28;20061;-78
2022/05/01 07:43:10;;;;;;;5.70;3.38;;;14.90;78.30;;;;;;5008372;28;20069;-77
2022/05/01 07:45:35;;;;;;;5.30;3.20;;;14.90;78.20;;;;;;5008630;28;20539;-75
2022/05/01 07:48:01;;;;;;;5.35;3.25;;;14.90;78.30;;;;;;5007286;28;20120;-77
2022/05/01 07:50:27;;;;;;;6.18;3.67;;;14.80;78.40;;;;;;5009125;28;20403;-76
2022/05/01 07:52:53;;;;;;;5.40;3.42;;;14.80;78.50;;;;;;5024189;28;20875;-77
2022/05/01 07:55:18;;;;;;;5.97;3.50;;;14.80;78.60;;;;;;5027153;28;20022;-77
2022/05/01 07:57:44;;;;;;;5.28;3.20;;;14.80;78.70;;;;;;5028070;28;20033;-80
2022/05/01 08:00:09;;;;;;;5.72;3.83;;;14.70;78.80;;;;;;5027327;28;20026;-78
2022/05/01 08:04:27;;;;;;;5.97;3.60;;;14.80;78.70;;;;;;5029664;28;20021;-77
2022/05/01 08:05:27;;;;;;;5.60;3.30;;;14.80;78.80;;;;;;5031018;28;20044;-77
2022/05/01 08:07:53;;;;;;;5.53;3.42;;;14.80;78.80;;;;;;5031183;28;20032;-77
2022/05/01 08:10:19;;;;;;;5.55;3.33;;;14.80;78.60;;;;;;5031726;28;20037;-76
2022/05/01 08:12:45;;;;;;;5.47;3.35;;;14.80;78.50;;;;;;5019636;28;20055;-77
2022/05/01 08:15:11;;;;;;;5.28;3.13;;;14.90;78.50;;;;;;5029538;28;20053;-76
2022/05/01 08:17:36;;;;;;;6.35;3.78;;;14.90;78.40;;;;;;5031678;28;20021;-77
2022/05/01 08:22:46;;;;;;;5.75;3.50;;;14.90;78.20;;;;;;5030235;28;20071;-78
2022/05/01 08:25:11;;;;;;;5.57;3.30;;;15.00;78.20;;;;;;5005119;28;20026;-81
2022/05/01 08:27:39;;;;;;;5.18;3.10;;;15.00;78.30;;;;;;5028028;28;20030;-79
2022/05/01 08:30:05;;;;;;;5.88;3.80;;;14.90;78.20;;;;;;5031362;28;20417;-77
2022/05/01 08:32:31;;;;;;;5.82;3.25;;;14.90;78.30;;;;;;5031369;28;20529;-78
2022/05/01 08:34:57;;;;;;;5.38;3.28;;;14.90;78.40;;;;;;5028836;28;20109;-79
2022/05/01 08:37:23;;;;;;;5.35;3.13;;;14.90;78.40;;;;;;5026844;28;20116;-78
2022/05/01 08:39:48;;;;;;;5.47;3.20;;;14.90;78.50;;;;;;5026676;28;20061;-76
2022/05/01 08:42:14;;;;;;;5.90;3.50;;;14.90;78.50;;;;;;5012678;28;20079;-78
2022/05/01 08:44:39;;;;;;;5.15;3.33;;;14.90;78.40;;;;;;5031422;28;20033;-78
2022/05/01 08:47:50;;;;;;;5.82;3.33;;;15.00;78.40;;;;;;5005132;28;20022;-78
2022/05/01 08:50:17;;;;;;;5.65;3.40;;;15.00;78.20;;;;;;5012484;28;20033;-77
2022/05/01 08:52:44;;;;;;;5.40;3.40;;;15.00;78.00;;;;;;5013508;28;20402;-77
2022/05/01 08:55:12;;;;;;;6.07;3.80;;;15.10;77.90;;;;;;5013490;28;20028;-78
2022/05/01 08:57:38;;;;;;;5.22;3.35;;;15.10;77.80;;;;;;5030543;28;20390;-78
2022/05/01 09:00:07;;;;;;;5.25;3.30;;;15.10;77.70;;;;;;5013329;28;20036;-81
2022/05/01 09:02:33;;;;;;;5.40;3.22;;;15.10;77.50;;;;;;5013269;28;20024;-77
2022/05/01 09:04:59;;;;;;;5.22;3.28;;;15.20;77.60;;;;;;5012284;28;20030;-75
2022/05/01 09:07:25;;;;;;;5.57;3.40;;;15.10;77.50;;;;;;5011057;28;20090;-75
2022/05/01 09:09:51;;;;;;;5.32;3.10;;;15.10;77.60;;;;;;5029577;28;20021;-75
2022/05/01 09:15:02;;;;;;;5.72;3.63;;;15.10;77.50;;;;;;5029683;28;20111;-77
2022/05/01 09:17:28;;;;;;;5.90;3.60;;;15.20;77.60;;;;;;5028784;28;20053;-79
2022/05/01 09:20:10;;;;;;;5.75;3.47;;;15.20;77.60;;;;;;5029705;28;20064;-75
2022/05/01 09:22:57;;;;;;;5.47;3.30;;;15.20;77.60;;;;;;5010206;28;20109;-76
2022/05/01 09:25:25;;;;;;;6.00;3.60;;;15.20;77.60;;;;;;5022554;28;20424;-77
2022/05/01 09:27:57;;;;;;;5.05;3.20;;;15.20;77.60;;;;;;5025738;28;20021;-76
2022/05/01 09:30:38;;;;;;;5.57;3.50;;;15.20;77.50;;;;;;5030461;28;20313;-75
2022/05/01 09:33:04;;;;;;;6.13;3.50;;;15.20;77.50;;;;;;5010700;28;20025;-76
2022/05/01 09:35:34;;;;;;;5.22;3.35;;;15.20;77.50;;;;;;5027141;28;20033;-77
2022/05/01 09:38:12;;;;;;;6.15;3.65;;;15.20;77.60;;;;;;5012846;28;20083;-77
2022/05/01 09:40:37;;;;;;;5.72;3.47;;;15.20;77.70;;;;;;5030206;28;20025;-78
2022/05/01 09:43:03;;;;;;;5.80;3.40;;;15.20;77.80;;;;;;5012400;28;20060;-77
2022/05/01 09:57:59;;;;;;;6.90;3.63;;;15.00;78.10;;;;;;5028737;28;20028;-77
2022/05/01 10:00:48;;;;;;;5.60;3.40;;;15.00;78.30;;;;;;5008526;28;20037;-75
2022/05/01 10:03:28;;;;;;;5.38;3.10;;;15.10;78.40;;;;;;5024984;28;20037;-74
2022/05/01 10:05:55;;;;;;;5.80;3.33;;;15.10;78.40;;;;;;5018733;28;20037;-75
2022/05/01 10:08:21;;;;;;;5.78;3.50;;;15.10;78.30;;;;;;4999199;28;20683;-81
2022/05/01 10:10:49;;;;;;;5.82;3.42;;;15.10;78.20;;;;;;5003999;28;20029;-74
2022/05/01 10:13:15;;;;;;;4.95;3.03;;;15.10;78.10;;;;;;5010217;28;20402;-74
2022/05/01 10:15:41;;;;;;;5.82;3.28;;;15.10;78.10;;;;;;5027287;28;20025;-75
2022/05/01 10:18:08;;;;;;;5.03;3.05;;;15.10;78.10;;;;;;5016807;28;20595;-75
2022/05/01 10:20:37;;;;;;;5.35;3.40;;;15.10;78.00;;;;;;5019736;28;20128;-74
2022/05/01 10:23:03;;;;;;;5.85;3.25;;;15.10;78.00;;;;;;5022909;28;20403;-74
2022/05/01 10:25:35;;;;;;;5.50;3.15;;;15.10;78.00;;;;;;4998212;28;20087;-76
2022/05/01 10:28:08;;;;;;;5.47;3.10;;;15.10;78.00;;;;;;5004162;28;20025;-74
2022/05/01 10:33:51;;;;;;;5.35;3.13;;;15.10;78.00;;;;;;5028554;28;20027;-74
2022/05/01 10:36:54;;;;;;;5.00;3.22;;;15.10;78.10;;;;;;5015637;28;20029;-75
2022/05/01 10:39:21;;;;;;;5.78;3.30;;;15.10;78.10;;;;;;5028775;28;20079;-73
2022/05/01 10:41:47;;;;;;;5.55;3.33;;;15.10;78.10;;;;;;5001992;28;20029;-74
2022/05/01 10:44:40;;;;;;;5.38;3.40;;;15.10;78.00;;;;;;5013735;28;20021;-74
2022/05/01 10:47:13;;;;;;;5.80;3.25;;;15.10;78.00;;;;;;5022959;28;20013;-75
2022/05/01 10:49:41;;;;;;;5.50;3.00;;;15.10;77.90;;;;;;5022666;28;20112;-77
2022/05/01 10:52:20;;;;;;;5.35;3.20;;;15.10;77.90;;;;;;5027415;28;20386;-74
2022/05/01 10:54:52;;;;;;;5.50;3.30;;;15.10;77.90;;;;;;5026795;28;20025;-75
2022/05/01 10:57:18;;;;;;;5.85;3.33;;;15.10;77.90;;;;;;5030974;28;20017;-76
2022/05/01 10:59:46;;;;;;;5.43;3.00;;;15.10;77.90;;;;;;5010803;28;20033;-74
2022/05/01 11:02:25;;;;;;;5.47;3.22;;;15.10;78.00;;;;;;5024891;28;20029;-78
2022/05/01 11:04:52;;;;;;;5.85;3.40;;;15.10;78.10;;;;;;5014214;28;20083;-76
2022/05/01 11:07:19;;;;;;;5.70;3.38;;;15.10;78.30;;;;;;5028379;28;20029;-76
2022/05/01 11:09:47;;;;;;;6.00;3.40;;;15.00;78.30;;;;;;5026543;28;20410;-75
2022/05/01 11:12:14;;;;;;;5.80;3.17;;;15.00;78.40;;;;;;5028086;28;20021;-76
2022/05/01 11:15:09;;;;;;;6.45;3.65;;;15.00;78.50;;;;;;5010351;28;20040;-76
2022/05/01 11:17:36;;;;;;;6.32;3.40;;;15.00;78.60;;;;;;5024338;28;20513;-79
2022/05/01 11:20:13;;;;;;;5.13;3.13;;;15.00;78.40;;;;;;5011304;28;20029;-76
2022/05/01 11:22:39;;;;;;;6.20;3.10;;;15.00;78.20;;;;;;5010593;28;20033;-76
2022/05/01 11:25:10;;;;;;;7.20;3.40;;;15.00;78.10;;;;;;5028042;28;20490;-76
2022/05/01 11:27:49;;;;;;;5.75;3.60;;;15.00;78.10;;;;;;5012714;28;20026;-76
2022/05/01 11:30:27;;;;;;;6.22;3.10;;;15.00;78.00;;;;;;5028393;28;20017;-76
2022/05/01 11:33:04;;;;;;;6.57;3.17;;;15.00;78.00;;;;;;5027133;28;20040;-76
2022/05/01 11:35:51;;;;;;;9.38;3.33;;;15.00;77.90;;;;;;5033430;28;20105;-77
2022/05/01 11:38:16;;;;;;;8.35;3.70;;;15.00;77.90;;;;;;5030535;28;20029;-75
2022/05/01 11:40:53;;;;;;;9.55;3.80;;;15.00;77.90;;;;;;5014152;28;20025;-76
2022/05/01 11:43:20;;;;;;;9.00;3.63;;;15.00;78.00;;;;;;5015014;28;20030;-77
2022/05/01 11:45:47;;;;;;;20.27;5.03;;;15.00;78.20;;;;;;5014303;28;20104;-77
2022/05/01 11:48:16;;;;;;;14.85;4.18;;;15.00;78.10;;;;;;5032208;28;20049;-77
2022/05/01 11:50:43;;;;;;;20.40;5.05;;;15.00;78.20;;;;;;5014287;28;20040;-77
2022/05/01 11:53:25;;;;;;;18.70;5.22;;;15.00;78.40;;;;;;5032294;28;20508;-77
2022/05/01 12:04:25;;;;;;;35.97;6.30;;;15.00;78.20;;;;;;5012192;28;20088;-77
2022/05/01 12:06:58;;;;;;;34.80;6.00;;;14.90;78.10;;;;;;5010409;28;20025;-75
2022/05/01 12:09:26;;;;;;;30.75;6.03;;;15.00;78.10;;;;;;4994707;28;20084;-76
2022/05/01 12:11:51;;;;;;;24.52;5.25;;;15.00;78.20;;;;;;5012101;28;20112;-78
2022/05/01 12:14:17;;;;;;;33.55;5.53;;;15.00;78.20;;;;;;5004948;28;20037;-77
2022/05/01 12:16:43;;;;;;;30.75;5.72;;;14.90;78.20;;;;;;5013775;28;20025;-76
2022/05/01 12:19:10;;;;;;;34.92;6.10;;;14.90;78.20;;;;;;5013979;28;20033;-77
2022/05/01 12:21:36;;;;;;;30.35;5.95;;;15.00;78.20;;;;;;5013856;28;20053;-77
2022/05/01 12:24:03;;;;;;;31.85;6.13;;;15.00;78.20;;;;;;5013604;28;20068;-76
2022/05/01 12:26:33;;;;;;;32.08;5.93;;;15.00;78.10;;;;;;5013719;28;20029;-76
2022/05/01 12:28:59;;;;;;;29.55;5.03;;;15.00;78.20;;;;;;5025410;28;20108;-76
2022/05/01 12:31:26;;;;;;;29.02;6.18;;;15.00;78.20;;;;;;5011623;28;20033;-75
2022/05/01 12:33:52;;;;;;;30.58;5.93;;;15.00;78.10;;;;;;5013572;28;20092;-76
2022/05/01 12:36:27;;;;;;;29.38;6.38;;;15.00;78.10;;;;;;5021955;28;20036;-76
2022/05/01 12:39:04;;;;;;;26.63;5.50;;;15.00;78.10;;;;;;5017701;28;20025;-76
2022/05/01 12:44:14;;;;;;;30.15;5.80;;;15.00;77.90;;;;;;5031608;28;20518;-76
2022/05/01 12:46:53;;;;;;;23.80;5.65;;;15.10;77.70;;;;;;5013189;28;20025;-75
2022/05/01 12:49:26;;;;;;;27.63;6.03;;;15.10;77.40;;;;;;5030872;28;20029;-77
2022/05/01 12:51:51;;;;;;;24.27;5.53;;;15.10;77.40;;;;;;5045472;28;20026;-76
2022/05/01 12:54:17;;;;;;;21.80;5.57;;;15.20;77.30;;;;;;5030362;28;20033;-76
2022/05/01 12:56:45;;;;;;;23.70;5.22;;;15.10;77.30;;;;;;5030249;28;20075;-76
2022/05/01 12:59:30;;;;;;;29.83;5.65;;;15.10;77.30;;;;;;5030872;28;20041;-78
2022/05/01 13:01:57;;;;;;;28.27;5.40;;;15.10;77.50;;;;;;5030078;28;20052;-75
2022/05/01 13:04:30;;;;;;;19.17;5.30;;;15.10;77.70;;;;;;5023836;28;20032;-76
2022/05/01 13:06:56;;;;;;;18.80;5.18;;;15.00;77.70;;;;;;5022971;28;20017;-77
2022/05/01 13:09:23;;;;;;;19.63;5.25;;;15.00;77.80;;;;;;5030209;28;20487;-78
2022/05/01 13:12:03;;;;;;;19.38;5.20;;;15.00;77.90;;;;;;5020037;28;20402;-74
2022/05/01 13:14:36;;;;;;;18.73;4.93;;;15.00;78.00;;;;;;5008423;28;20109;-76
2022/05/01 13:17:13;;;;;;;18.50;5.55;;;15.00;78.10;;;;;;5015015;28;20032;-77
2022/05/01 13:19:41;;;;;;;23.83;5.20;;;15.00;78.70;;;;;;5030507;28;20037;-78
2022/05/01 13:22:08;;;;;;;29.45;6.45;;;15.00;78.20;;;;;;5030054;28;20025;-77
2022/05/01 13:24:36;;;;;;;16.17;4.80;;;15.00;78.30;;;;;;5012749;28;20022;-77
2022/05/01 13:27:07;;;;;;;21.38;4.35;;;14.90;78.30;;;;;;5013964;28;20063;-77
2022/05/01 13:29:34;;;;;;;18.90;5.28;;;15.00;77.90;;;;;;5024649;28;20021;-77
2022/05/01 13:32:05;;;;;;;26.08;5.65;;;15.00;78.20;;;;;;5009319;28;20534;-77
2022/05/01 13:34:31;;;;;;;18.60;5.20;;;14.90;78.20;;;;;;5029931;28;20025;-75